createdAt,value
2023-10-23T00:01:42.516Z,7.40
2023-10-23T00:04:10.976Z,7.44
2023-10-23T00:06:39.374Z,7.52
2023-10-23T00:09:07.559Z,7.56
2023-10-23T00:11:35.574Z,7.66
2023-10-23T00:14:05.084Z,7.61
2023-10-23T00:16:33.140Z,7.43
2023-10-23T00:19:01.144Z,7.40
2023-10-23T00:21:29.201Z,7.31
2023-10-23T00:23:57.187Z,7.30
2023-10-23T00:26:25.952Z,7.41
2023-10-23T00:28:54.101Z,7.39
2023-10-23T00:31:23.513Z,7.29
2023-10-23T00:33:51.692Z,6.97
2023-10-23T00:36:19.788Z,7.17
2023-10-23T00:38:47.794Z,7.18
2023-10-23T00:41:15.820Z,7.10
2023-10-23T00:43:43.791Z,7.07
2023-10-23T00:46:16.191Z,7.00
2023-10-23T00:48:47.909Z,7.04
2023-10-23T00:51:17.659Z,7.07
2023-10-23T00:53:46.395Z,7.08
2023-10-23T00:56:14.674Z,7.17
2023-10-23T00:58:44.205Z,7.01
2023-10-23T01:01:13.762Z,6.94
2023-10-23T01:03:42.129Z,6.94
2023-10-23T01:06:14.128Z,6.79
2023-10-23T01:08:42.972Z,6.69
2023-10-23T01:11:11.078Z,6.58
2023-10-23T01:13:40.009Z,6.72
2023-10-23T01:16:08.580Z,6.78
2023-10-23T01:18:36.641Z,6.84
2023-10-23T01:21:04.848Z,6.84
2023-10-23T01:23:37.040Z,7.01
2023-10-23T01:26:06.455Z,6.87
2023-10-23T01:28:35.192Z,6.81
2023-10-23T01:31:03.315Z,6.82
2023-10-23T01:33:31.695Z,6.93
2023-10-23T01:35:59.757Z,6.93
2023-10-23T01:38:27.850Z,6.88
2023-10-23T01:40:55.947Z,6.78
2023-10-23T01:43:25.537Z,6.72
2023-10-23T01:45:53.624Z,6.66
2023-10-23T01:48:23.321Z,6.56
2023-10-23T01:50:51.796Z,6.64
2023-10-23T01:53:19.804Z,6.68
2023-10-23T01:55:47.881Z,6.72
2023-10-23T01:58:15.928Z,6.68
2023-10-23T02:00:45.512Z,6.69
2023-10-23T02:03:13.617Z,6.76
2023-10-23T02:05:41.692Z,6.49
2023-10-23T02:08:10.159Z,6.59
2023-10-23T02:10:38.149Z,6.52
2023-10-23T02:13:06.602Z,6.62
2023-10-23T02:15:34.613Z,6.70
2023-10-23T02:18:04.455Z,6.75
2023-10-23T02:20:32.482Z,6.49
2023-10-23T02:23:00.463Z,6.41
2023-10-23T02:25:28.556Z,6.26
2023-10-23T02:27:56.727Z,6.24
2023-10-23T02:30:24.775Z,6.39
2023-10-23T02:32:52.876Z,6.21
2023-10-23T02:35:22.951Z,6.11
2023-10-23T02:37:51.037Z,6.18
2023-10-23T02:40:19.275Z,6.19
2023-10-23T02:42:47.295Z,6.16
2023-10-23T02:45:16.425Z,6.09
2023-10-23T02:47:44.399Z,6.05
2023-10-23T02:50:13.206Z,6.11
2023-10-23T02:52:42.629Z,5.95
2023-10-23T02:55:11.572Z,5.87
2023-10-23T02:57:40.960Z,6.03
2023-10-23T03:00:10.329Z,6.17
2023-10-23T03:02:38.402Z,6.15
2023-10-23T03:05:07.187Z,5.86
2023-10-23T03:07:35.189Z,5.77
2023-10-23T03:10:04.660Z,5.63
2023-10-23T03:12:32.764Z,5.55
2023-10-23T03:15:00.776Z,5.51
2023-10-23T03:17:28.758Z,5.61
2023-10-23T03:19:57.097Z,5.73
2023-10-23T03:22:25.024Z,5.76
2023-10-23T03:24:53.145Z,5.94
2023-10-23T03:27:22.628Z,6.01
2023-10-23T03:29:50.797Z,5.88
2023-10-23T03:32:18.731Z,5.74
2023-10-23T03:34:46.919Z,5.83
2023-10-23T03:37:15.561Z,5.93
2023-10-23T03:39:43.935Z,5.80
2023-10-23T03:42:12.258Z,5.73
2023-10-23T03:44:41.619Z,5.85
2023-10-23T03:47:09.564Z,6.18
2023-10-23T03:49:37.676Z,6.20
2023-10-23T03:52:05.905Z,6.23
2023-10-23T03:54:33.920Z,6.29
2023-10-23T03:57:02.056Z,6.38
2023-10-23T03:59:30.123Z,6.47
2023-10-23T04:01:59.547Z,6.54
2023-10-23T04:04:28.738Z,6.26
2023-10-23T04:06:58.260Z,6.28
2023-10-23T04:09:26.321Z,6.34
2023-10-23T04:11:56.119Z,6.28
2023-10-23T04:14:24.452Z,6.43
2023-10-23T04:16:52.557Z,6.29
2023-10-23T04:19:21.964Z,6.35
2023-10-23T04:21:50.010Z,6.31
2023-10-23T04:24:18.049Z,6.24
2023-10-23T04:26:46.119Z,6.19
2023-10-23T04:29:14.149Z,6.27
2023-10-23T04:31:42.153Z,6.21
2023-10-23T04:34:10.936Z,6.23
2023-10-23T04:36:40.321Z,6.17
2023-10-23T04:39:08.322Z,6.22
2023-10-23T04:41:36.565Z,6.03
2023-10-23T04:44:05.011Z,5.91
2023-10-23T04:46:33.010Z,5.89
2023-10-23T04:49:01.445Z,5.96
2023-10-23T04:51:30.466Z,6.07
2023-10-23T04:53:59.999Z,6.26
2023-10-23T04:56:28.003Z,6.39
2023-10-23T04:58:56.055Z,6.18
2023-10-23T05:01:25.679Z,6.16
2023-10-23T05:03:53.771Z,6.34
2023-10-23T05:06:26.947Z,6.41
2023-10-23T05:08:55.119Z,6.44
2023-10-23T05:11:24.523Z,6.50
2023-10-23T05:13:54.361Z,6.67
2023-10-23T05:16:22.482Z,6.59
2023-10-23T05:18:50.573Z,6.49
2023-10-23T05:21:18.924Z,6.36
2023-10-23T05:23:46.916Z,6.63
2023-10-23T05:26:16.179Z,6.56
2023-10-23T05:28:45.837Z,6.47
2023-10-23T05:31:13.931Z,6.58
2023-10-23T05:33:42.010Z,6.61
2023-10-23T05:36:11.277Z,6.73
2023-10-23T05:38:40.311Z,6.70
2023-10-23T05:41:09.314Z,6.69
2023-10-23T05:43:38.049Z,6.66
2023-10-23T05:46:07.810Z,6.71
2023-10-23T05:48:37.880Z,6.83
2023-10-23T05:51:07.368Z,6.85
2023-10-23T05:53:36.328Z,6.88
2023-10-23T05:56:05.297Z,6.86
2023-10-23T05:58:33.949Z,6.87
2023-10-23T06:01:08.770Z,6.84
2023-10-23T06:03:37.741Z,6.92
2023-10-23T06:06:06.439Z,6.97
2023-10-23T06:08:34.541Z,6.89
2023-10-23T06:11:03.127Z,6.87
2023-10-23T06:13:31.229Z,6.93
2023-10-23T06:16:05.928Z,6.78
2023-10-23T06:18:36.365Z,6.93
2023-10-23T06:21:05.881Z,7.00
2023-10-23T06:23:35.077Z,6.99
2023-10-23T06:26:03.332Z,7.04
2023-10-23T06:28:31.475Z,7.05
2023-10-23T06:31:06.426Z,7.03
2023-10-23T06:33:36.433Z,7.13
2023-10-23T06:36:06.115Z,7.16
2023-10-23T06:38:34.252Z,7.24
2023-10-23T06:41:06.140Z,7.32
2023-10-23T06:43:34.340Z,7.35
2023-10-23T06:46:03.494Z,7.39
2023-10-23T06:48:33.145Z,7.42
2023-10-23T06:51:02.770Z,7.49
2023-10-23T06:53:30.847Z,7.56
2023-10-23T06:55:58.875Z,7.55
2023-10-23T06:58:26.897Z,7.58
2023-10-23T07:00:54.942Z,7.44
2023-10-23T07:03:23.051Z,7.52
2023-10-23T07:05:51.181Z,7.29
2023-10-23T07:08:20.846Z,7.39
2023-10-23T07:10:49.169Z,7.42
2023-10-23T07:13:22.787Z,7.35
2023-10-23T07:15:52.054Z,7.40
2023-10-23T07:18:21.014Z,7.63
2023-10-23T07:20:58.589Z,7.80
2023-10-23T07:23:30.471Z,8.00
2023-10-23T07:26:08.934Z,7.95
2023-10-23T07:28:39.837Z,7.86
2023-10-23T07:31:08.675Z,7.88
2023-10-23T07:33:37.722Z,8.01
2023-10-23T07:36:08.269Z,8.22
2023-10-23T07:38:38.777Z,8.34
2023-10-23T07:41:06.971Z,8.18
2023-10-23T07:43:35.095Z,8.15
2023-10-23T07:46:15.829Z,8.14
2023-10-23T07:48:45.609Z,8.16
2023-10-23T07:51:14.171Z,7.91
2023-10-23T07:53:44.225Z,8.06
2023-10-23T07:56:14.391Z,7.81
2023-10-23T07:58:43.022Z,7.95
2023-10-23T08:01:13.154Z,7.97
2023-10-23T08:03:42.094Z,7.98
2023-10-23T08:06:12.297Z,7.82
2023-10-23T08:08:44.451Z,7.92
2023-10-23T08:11:14.534Z,7.90
2023-10-23T08:13:43.027Z,7.98
2023-10-23T08:16:11.487Z,8.23
2023-10-23T08:18:42.011Z,8.14
2023-10-23T08:21:12.824Z,8.12
2023-10-23T08:23:41.667Z,8.53
2023-10-23T08:26:11.664Z,8.39
2023-10-23T08:31:24.875Z,8.82
2023-10-23T08:33:59.344Z,8.77
2023-10-23T08:36:27.593Z,8.86
2023-10-23T08:38:55.664Z,9.02
2023-10-23T08:41:26.575Z,8.98
2023-10-23T08:43:56.424Z,8.90
2023-10-23T08:46:27.100Z,9.00
2023-10-23T08:48:55.736Z,9.03
2023-10-23T08:51:23.843Z,9.11
2023-10-23T08:54:09.313Z,9.19
2023-10-23T08:56:41.165Z,9.26
2023-10-23T08:59:11.522Z,9.28
2023-10-23T09:01:40.366Z,9.34
2023-10-23T09:04:11.930Z,9.22
2023-10-23T09:06:40.943Z,9.47
2023-10-23T09:09:10.228Z,9.57
2023-10-23T09:11:46.181Z,9.18
2023-10-23T09:14:25.791Z,9.53
2023-10-23T09:16:56.443Z,9.32
2023-10-23T09:19:29.249Z,9.48
2023-10-23T09:21:58.545Z,9.40
2023-10-23T09:24:26.847Z,9.32
2023-10-23T09:26:56.273Z,9.17
2023-10-23T09:29:25.255Z,9.26
2023-10-23T09:31:54.072Z,9.36
2023-10-23T09:34:22.905Z,9.37
2023-10-23T09:36:52.677Z,9.35
2023-10-23T09:39:23.745Z,9.43
2023-10-23T09:41:52.603Z,9.48
2023-10-23T09:44:22.183Z,9.51
2023-10-23T09:46:51.550Z,9.58
2023-10-23T09:49:22.030Z,9.56
2023-10-23T09:51:51.497Z,9.56
2023-10-23T09:54:22.170Z,9.59
2023-10-23T09:56:52.308Z,9.48
2023-10-23T09:59:28.001Z,9.65
2023-10-23T10:02:00.072Z,9.57
2023-10-23T10:04:31.847Z,9.57
2023-10-23T10:07:07.490Z,9.49
2023-10-23T10:09:36.653Z,9.48
2023-10-23T10:12:06.023Z,9.49
2023-10-23T10:14:35.935Z,9.59
2023-10-23T10:17:04.854Z,9.53
2023-10-23T10:19:34.107Z,9.44
2023-10-23T10:22:10.944Z,9.51
2023-10-23T10:24:40.554Z,9.46
2023-10-23T10:27:09.912Z,9.53
2023-10-23T10:29:41.265Z,9.68
2023-10-23T10:32:13.784Z,9.66
2023-10-23T10:34:56.735Z,9.80
2023-10-23T10:37:28.083Z,9.69
2023-10-23T10:40:13.615Z,9.55
2023-10-23T10:42:42.575Z,9.76
2023-10-23T10:45:56.331Z,9.63
2023-10-23T10:48:27.290Z,9.70
2023-10-23T10:50:56.382Z,9.72
2023-10-23T10:53:26.914Z,9.84
2023-10-23T10:55:54.959Z,9.97
2023-10-23T10:58:23.938Z,9.87
2023-10-23T11:00:53.733Z,10.21
2023-10-23T11:03:21.879Z,10.21
2023-10-23T11:05:49.970Z,10.05
2023-10-23T11:08:17.993Z,10.14
2023-10-23T11:10:46.159Z,10.16
2023-10-23T11:13:17.711Z,10.18
2023-10-23T11:15:47.076Z,10.52
2023-10-23T11:18:18.484Z,10.65
2023-10-23T11:20:46.537Z,10.45
2023-10-23T11:23:17.014Z,10.75
2023-10-23T11:25:45.044Z,10.36
2023-10-23T11:28:13.118Z,10.56
2023-10-23T11:30:47.521Z,10.36
2023-10-23T11:33:17.638Z,10.45
2023-10-23T11:35:45.759Z,10.16
2023-10-23T11:38:14.989Z,10.25
2023-10-23T11:40:44.168Z,10.42
2023-10-23T11:43:13.391Z,10.51
2023-10-23T11:45:42.182Z,10.55
2023-10-23T11:48:10.643Z,10.64
2023-10-23T11:50:42.106Z,10.64
2023-10-23T11:53:10.364Z,10.75
2023-10-23T11:55:39.918Z,10.85
2023-10-23T11:58:08.049Z,11.04
2023-10-23T12:00:38.864Z,10.88
2023-10-23T12:03:07.735Z,10.82
2023-10-23T12:05:36.010Z,10.66
2023-10-23T12:08:06.316Z,10.88
2023-10-23T12:10:34.848Z,10.98
2023-10-23T12:13:03.952Z,11.08
2023-10-23T12:15:31.979Z,11.17
2023-10-23T12:18:04.737Z,11.35
2023-10-23T12:20:33.298Z,11.29
2023-10-23T12:23:01.526Z,11.32
2023-10-23T12:25:31.093Z,11.11
2023-10-23T12:27:59.572Z,11.26
2023-10-23T12:30:29.316Z,10.98
2023-10-23T12:33:13.674Z,11.24
2023-10-23T12:35:45.938Z,11.42
2023-10-23T12:38:14.059Z,11.30
2023-10-23T12:40:44.904Z,11.38
2023-10-23T12:43:17.140Z,11.48
2023-10-23T12:45:45.179Z,11.49
2023-10-23T12:48:13.169Z,11.44
2023-10-23T12:50:41.250Z,11.45
2023-10-23T12:53:10.680Z,11.55
2023-10-23T12:55:38.837Z,11.55
2023-10-23T12:58:08.634Z,11.45
2023-10-23T13:00:37.712Z,11.54
2023-10-23T13:03:06.342Z,11.33
2023-10-23T13:05:34.819Z,11.66
2023-10-23T13:08:03.057Z,11.68
2023-10-23T13:10:31.167Z,11.72
2023-10-23T13:12:59.219Z,11.53
2023-10-23T13:15:29.130Z,11.43
2023-10-23T13:17:57.681Z,11.46
2023-10-23T13:21:27.838Z,11.23
2023-10-23T13:23:13.875Z,11.14
2023-10-23T13:25:42.304Z,11.29
2023-10-23T13:28:10.978Z,11.25
2023-10-23T13:30:40.958Z,11.09
2023-10-23T13:33:09.093Z,11.13
2023-10-23T13:35:38.104Z,11.21
2023-10-23T13:38:06.352Z,11.43
2023-10-23T13:40:38.245Z,11.55
2023-10-23T13:43:06.271Z,11.57
2023-10-23T13:45:34.373Z,11.72
2023-10-23T13:48:04.477Z,11.80
2023-10-23T13:50:33.796Z,11.88
2023-10-23T13:53:01.778Z,11.63
2023-10-23T13:55:29.967Z,11.82
2023-10-23T13:57:58.156Z,11.83
2023-10-23T14:00:26.649Z,12.00
2023-10-23T14:02:54.908Z,11.69
2023-10-23T14:05:24.635Z,11.38
2023-10-23T14:07:55.910Z,11.51
2023-10-23T14:10:24.328Z,11.50
2023-10-23T14:23:34.970Z,11.33
2023-10-23T14:26:03.176Z,11.79
2023-10-23T14:28:32.207Z,11.81
2023-10-23T14:31:00.548Z,11.47
2023-10-23T14:33:33.215Z,11.44
2023-10-23T14:36:01.405Z,11.72
2023-10-23T14:38:29.441Z,11.77
2023-10-23T14:41:00.621Z,11.64
2023-10-23T14:43:28.741Z,11.51
2023-10-23T14:45:56.854Z,11.47
2023-10-23T14:48:25.348Z,11.69
2023-10-23T14:50:54.172Z,11.80
2023-10-23T14:53:22.335Z,11.66
2023-10-23T14:55:50.337Z,11.75
2023-10-23T14:58:19.831Z,11.51
2023-10-23T15:00:47.882Z,11.62
2023-10-23T15:03:15.923Z,11.55
2023-10-23T15:05:43.974Z,11.51
2023-10-23T15:08:12.040Z,11.70
2023-10-23T15:10:40.047Z,11.66
2023-10-23T15:13:08.201Z,11.42
2023-10-23T15:15:38.000Z,11.38
2023-10-23T15:18:06.096Z,11.49
2023-10-23T15:20:34.312Z,11.53
2023-10-23T15:23:03.710Z,11.42
2023-10-23T15:25:32.171Z,11.36
2023-10-23T15:28:00.690Z,11.26
2023-10-23T15:38:37.775Z,11.24
2023-10-23T15:40:37.261Z,11.11
2023-10-23T15:58:53.357Z,10.82
2023-10-23T16:02:24.626Z,11.01
2023-10-23T16:06:11.229Z,10.88
2023-10-23T16:12:19.251Z,10.86
2023-10-23T16:15:35.381Z,10.78
2023-10-23T16:22:07.355Z,10.45
2023-10-23T16:25:45.151Z,10.16
2023-10-23T16:29:10.676Z,10.40
2023-10-23T16:31:59.313Z,10.46
2023-10-23T16:34:31.070Z,10.44
2023-10-23T16:40:45.002Z,10.34
2023-10-23T16:46:48.502Z,10.81
2023-10-23T16:50:23.731Z,10.42
2023-10-23T16:57:53.044Z,10.69
2023-10-23T17:00:22.748Z,10.56
2023-10-23T17:02:50.925Z,10.58
2023-10-23T17:05:31.517Z,10.44
2023-10-23T17:08:17.233Z,10.37
2023-10-23T17:11:06.826Z,10.36
2023-10-23T17:14:53.990Z,10.04
2023-10-23T17:20:49.368Z,10.18
2023-10-23T17:23:19.486Z,10.25
2023-10-23T17:25:48.297Z,9.84
2023-10-23T17:28:16.437Z,10.02
2023-10-23T17:30:44.626Z,9.98
2023-10-23T17:33:12.681Z,10.23
2023-10-23T17:35:40.718Z,10.21
2023-10-23T17:38:10.136Z,10.24
2023-10-23T17:40:38.268Z,10.12
2023-10-23T17:43:06.337Z,10.09
2023-10-23T17:45:35.464Z,10.05
2023-10-23T17:48:04.116Z,10.01
2023-10-23T17:50:34.104Z,9.99
2023-10-23T17:53:02.347Z,9.99
2023-10-23T17:55:40.017Z,9.95
2023-10-23T17:58:08.454Z,10.00
2023-10-23T18:00:36.916Z,10.02
2023-10-23T18:03:05.499Z,10.06
2023-10-23T18:05:33.706Z,9.99
2023-10-23T18:08:01.846Z,9.88
2023-10-23T18:10:31.383Z,10.04
2023-10-23T18:13:00.272Z,10.03
2023-10-23T18:15:28.365Z,9.92
2023-10-23T18:17:56.451Z,10.01
2023-10-23T18:20:24.865Z,10.00
2023-10-23T18:22:54.849Z,10.03
2023-10-23T18:25:22.879Z,10.06
2023-10-23T18:27:52.825Z,9.96
2023-10-23T18:30:21.645Z,10.04
2023-10-23T18:32:49.803Z,10.03
2023-10-23T18:35:18.211Z,10.13
2023-10-23T18:37:47.200Z,10.07
2023-10-23T18:40:16.216Z,10.07
2023-10-23T18:42:44.703Z,10.11
2023-10-23T18:45:17.308Z,10.09
2023-10-23T18:48:23.822Z,10.03
2023-10-23T18:51:34.392Z,9.81
2023-10-23T18:54:02.534Z,9.83
2023-10-23T18:57:25.797Z,9.64
2023-10-23T18:59:54.114Z,9.88
2023-10-23T19:02:23.705Z,9.70
2023-10-23T19:04:51.971Z,9.64
2023-10-23T19:07:21.346Z,9.99
2023-10-23T19:09:49.560Z,10.10
2023-10-23T19:12:17.649Z,10.09
2023-10-23T19:14:45.753Z,10.01
2023-10-23T19:17:21.559Z,10.00
2023-10-23T19:19:59.763Z,9.99
2023-10-23T19:22:27.885Z,9.87
2023-10-23T19:24:56.508Z,9.77
2023-10-23T19:27:26.633Z,9.74
2023-10-23T19:29:56.752Z,9.82
2023-10-23T19:32:26.157Z,9.78
2023-10-23T19:34:55.115Z,9.79
2023-10-23T19:37:25.404Z,9.81
2023-10-23T19:39:54.024Z,9.94
2023-10-23T19:42:27.922Z,9.90
2023-10-23T19:44:56.083Z,9.85
2023-10-23T19:47:24.901Z,9.90
2023-10-23T19:49:53.603Z,9.98
2023-10-23T19:52:22.936Z,9.87
2023-10-23T19:54:54.335Z,9.94
2023-10-23T19:57:34.777Z,10.07
2023-10-23T20:00:07.720Z,9.90
2023-10-23T20:02:35.919Z,9.98
2023-10-23T20:05:04.469Z,9.87
2023-10-23T20:07:32.644Z,10.01
2023-10-23T20:10:05.048Z,10.14
2023-10-23T20:12:33.379Z,10.25
2023-10-23T20:15:01.626Z,10.38
2023-10-23T20:17:29.727Z,10.42
2023-10-23T20:19:57.861Z,10.53
2023-10-23T20:22:25.986Z,10.55
2023-10-23T20:24:54.217Z,10.59
2023-10-23T20:27:23.701Z,10.42
2023-10-23T20:29:51.809Z,10.48
2023-10-23T20:32:20.131Z,10.53
2023-10-23T20:34:49.348Z,10.78
2023-10-23T20:37:17.510Z,10.94
2023-10-23T20:39:45.661Z,11.00
2023-10-23T20:42:13.741Z,11.09
2023-10-23T20:44:43.190Z,11.13
2023-10-23T20:47:15.721Z,10.97
2023-10-23T20:49:44.109Z,10.53
2023-10-23T20:52:13.256Z,10.37
2023-10-23T20:54:41.366Z,10.22
2023-10-23T20:57:09.483Z,10.18
2023-10-23T20:59:37.590Z,10.14
2023-10-23T21:02:07.558Z,9.97
2023-10-23T21:04:36.303Z,9.86
2023-10-23T21:07:04.536Z,9.77
2023-10-23T21:09:32.735Z,9.85
2023-10-23T21:12:05.592Z,9.83
2023-10-23T21:14:33.976Z,9.98
2023-10-23T21:17:02.549Z,9.84
2023-10-23T21:19:32.042Z,9.88
2023-10-23T21:22:00.492Z,9.82
2023-10-23T21:24:29.102Z,9.83
2023-10-23T21:26:58.714Z,9.66
2023-10-23T21:29:27.863Z,9.81
2023-10-23T21:31:56.669Z,9.79
2023-10-23T21:34:24.953Z,9.82
2023-10-23T21:36:55.283Z,9.68
2023-10-23T21:39:25.184Z,9.76
2023-10-23T21:41:53.261Z,9.74
2023-10-23T21:44:24.245Z,9.74
2023-10-23T21:46:54.675Z,9.81
2023-10-23T21:49:22.888Z,9.82
2023-10-23T21:51:54.621Z,9.90
2023-10-23T21:54:24.821Z,9.84
2023-10-23T21:57:20.416Z,9.73
2023-10-23T21:59:43.065Z,9.86
2023-10-23T22:02:12.962Z,9.94
2023-10-23T22:04:41.734Z,9.72
2023-10-23T22:07:13.359Z,9.85
2023-10-23T22:09:43.624Z,9.85
2023-10-23T22:12:12.922Z,9.75
2023-10-23T22:14:41.583Z,9.86
2023-10-23T22:17:10.354Z,9.90
2023-10-23T22:19:38.496Z,9.88
2023-10-23T22:22:06.600Z,9.92
2023-10-23T22:24:34.660Z,9.91
2023-10-23T22:27:04.225Z,9.94
2023-10-23T22:29:32.303Z,9.98
2023-10-23T22:32:00.394Z,9.97
2023-10-23T22:34:28.869Z,10.01
2023-10-23T22:37:46.385Z,9.97
2023-10-23T22:39:45.205Z,9.94
2023-10-23T22:42:14.669Z,9.91
2023-10-23T22:44:43.053Z,9.82
2023-10-23T22:47:11.247Z,9.85
2023-10-23T22:49:39.913Z,9.90
2023-10-23T22:52:08.847Z,9.97
2023-10-23T22:54:37.498Z,9.93
2023-10-23T22:57:08.023Z,9.92
2023-10-23T22:59:38.077Z,9.99
2023-10-23T23:02:06.997Z,9.95
2023-10-23T23:04:37.129Z,9.92
2023-10-23T23:07:07.744Z,9.97
2023-10-23T23:09:36.262Z,9.94
2023-10-23T23:12:04.839Z,10.01
2023-10-23T23:14:33.237Z,10.01
2023-10-23T23:17:04.807Z,10.01
2023-10-23T23:19:37.813Z,10.05
2023-10-23T23:22:09.558Z,10.01
2023-10-23T23:24:39.235Z,9.99
2023-10-23T23:27:07.606Z,10.04
2023-10-23T23:29:36.213Z,10.02
2023-10-23T23:32:05.911Z,10.08
2023-10-23T23:34:34.202Z,10.07
2023-10-23T23:37:02.829Z,10.06
2023-10-23T23:39:30.923Z,10.11
2023-10-23T23:41:59.287Z,10.08
2023-10-23T23:44:27.286Z,9.75
2023-10-23T23:46:57.383Z,10.06
2023-10-23T23:49:28.444Z,10.09
2023-10-23T23:51:56.617Z,10.00
2023-10-23T23:54:24.649Z,10.02
2023-10-23T23:56:52.745Z,10.08
2023-10-23T23:59:20.842Z,10.09
